CheckWX is a tool to help pilots better visualize weather data.  It is not intended as a substitute for an official pre-flight weather briefing.

15:39:44 UTC

KMAO METAR
Marion County Airport
Marion, South Carolina, USA
Current

25 mins ago

KMAO 241515Z AUTO 22006KT 10SM CLR 29/21 A2998 RMK AO2
Observed
Jun-24 @ 15:15 UTC
Wind
  • 220° at 6 KTS
Visibility
10 SM
Flight Rules
VFR
Cloud Levels
  • Clear skies
Temperature
29°C / 84°F
Dewpoint
21°C / 70°F
Heat Index
31°C / 88°F
Humidity
62%
Altimeter
29.98" Hg
Pressure
1015.22 hPa
Previous

45 mins ago

KMAO 241455Z AUTO 26009KT 10SM CLR 28/21 A2998 RMK AO2
Observed
Jun-24 @ 14:55 UTC
Wind
  • 260° at 9 KTS
Visibility
10 SM
Flight Rules
VFR
Cloud Levels
  • Clear skies
Temperature
28°C / 82°F
Dewpoint
21°C / 70°F
Heat Index
30°C / 86°F
Humidity
66%
Altimeter
29.98" Hg
Pressure
1015.22 hPa
Previous

1 hour ago

KMAO 241435Z AUTO 27008KT 10SM CLR 28/21 A2998 RMK AO2
Observed
Jun-24 @ 14:35 UTC
Wind
  • 270° at 8 KTS
Visibility
10 SM
Flight Rules
VFR
Cloud Levels
  • Clear skies
Temperature
28°C / 82°F
Dewpoint
21°C / 70°F
Heat Index
30°C / 86°F
Humidity
66%
Altimeter
29.98" Hg
Pressure
1015.22 hPa